Time;durP1;ratioP1;P1;durP2;ratioP2;P2;SDS_P1;SDS_P2;PMS_P1;PMS_P2;Temp;Humidity;BMP_temperature;BMP_pressure;BME280_temperature;BME280_humidity;BME280_pressure;Samples;Min_cycle;Max_cycle;Signal;HPM_P1;HPM_P2
2023/12/14 00:00:19;;;;;;;9.27;7.22;;;5.00;99.90;;;;;;5106197;28;20381;-75
2023/12/14 00:02:45;;;;;;;7.50;6.80;;;5.00;99.90;;;;;;5122557;28;20051;-74
2023/12/14 00:05:11;;;;;;;7.30;6.65;;;5.10;99.90;;;;;;5106150;28;20039;-75
2023/12/14 00:07:36;;;;;;;7.25;6.55;;;5.00;99.90;;;;;;5122077;28;20100;-75
2023/12/14 00:10:04;;;;;;;7.32;6.43;;;5.00;99.90;;;;;;5123399;28;20082;-75
2023/12/14 00:12:30;;;;;;;7.45;6.85;;;4.90;99.90;;;;;;5122101;28;20043;-76
2023/12/14 00:14:56;;;;;;;7.80;7.10;;;4.90;99.90;;;;;;5105378;28;20058;-76
2023/12/14 00:17:22;;;;;;;7.20;6.50;;;5.00;99.90;;;;;;5106249;28;20075;-75
2023/12/14 00:19:47;;;;;;;7.10;6.40;;;5.00;99.90;;;;;;5087460;28;20453;-74
2023/12/14 00:22:13;;;;;;;7.65;6.95;;;4.90;99.90;;;;;;5112084;28;20050;-75
2023/12/14 00:24:39;;;;;;;7.15;6.53;;;4.90;99.90;;;;;;5121428;28;20036;-73
2023/12/14 00:27:04;;;;;;;7.05;6.43;;;4.90;99.90;;;;;;5122914;28;20080;-75
2023/12/14 00:29:30;;;;;;;8.32;6.47;;;4.90;99.90;;;;;;5121552;28;20048;-75
2023/12/14 00:31:56;;;;;;;7.32;6.63;;;4.90;99.90;;;;;;5122013;28;20069;-75
2023/12/14 00:34:22;;;;;;;7.13;6.53;;;4.80;99.90;;;;;;5121818;28;20043;-75
2023/12/14 00:36:47;;;;;;;7.20;6.50;;;4.90;99.90;;;;;;5121540;28;20047;-76
2023/12/14 00:39:13;;;;;;;7.90;7.13;;;4.90;99.90;;;;;;5124462;28;20032;-76
2023/12/14 00:41:39;;;;;;;7.00;6.40;;;4.90;99.90;;;;;;5108131;28;20043;-76
2023/12/14 00:44:04;;;;;;;7.20;6.50;;;4.90;99.90;;;;;;5105900;28;20051;-76
2023/12/14 00:46:30;;;;;;;7.70;7.00;;;4.90;99.90;;;;;;5121779;28;20090;-77
2023/12/14 00:48:56;;;;;;;8.80;6.80;;;4.90;99.90;;;;;;5121815;28;20044;-76
2023/12/14 00:51:22;;;;;;;7.72;6.93;;;5.00;99.90;;;;;;5122049;28;20044;-76
2023/12/14 00:53:47;;;;;;;7.72;7.03;;;4.90;99.90;;;;;;5121942;28;20096;-76
2023/12/14 00:56:13;;;;;;;7.55;6.85;;;4.90;99.90;;;;;;5122502;28;20043;-76
2023/12/14 00:58:39;;;;;;;9.43;7.93;;;5.00;99.90;;;;;;5121540;28;20093;-76
2023/12/14 01:01:04;;;;;;;7.63;6.93;;;5.00;99.90;;;;;;5122160;28;20031;-76
2023/12/14 01:03:30;;;;;;;7.60;6.80;;;5.00;99.90;;;;;;5120900;28;20047;-76
2023/12/14 01:05:56;;;;;;;7.95;7.25;;;5.00;99.90;;;;;;5099659;28;20043;-76
2023/12/14 01:08:22;;;;;;;7.50;6.80;;;5.00;99.90;;;;;;5120355;28;20043;-76
2023/12/14 01:10:47;;;;;;;8.20;7.40;;;5.00;99.90;;;;;;5121325;28;20126;-76
2023/12/14 01:13:13;;;;;;;7.55;6.85;;;5.00;99.90;;;;;;5121794;28;20079;-76
2023/12/14 01:15:39;;;;;;;8.07;7.30;;;5.00;99.90;;;;;;5121857;28;20058;-77
2023/12/14 01:18:04;;;;;;;7.97;6.95;;;5.00;99.90;;;;;;5121394;28;20065;-77
2023/12/14 01:20:30;;;;;;;7.45;6.63;;;4.80;99.90;;;;;;5121640;28;20048;-77
2023/12/14 01:22:56;;;;;;;6.93;6.22;;;4.90;99.90;;;;;;5121747;28;20122;-77
2023/12/14 01:25:21;;;;;;;7.90;6.72;;;4.90;99.90;;;;;;5121021;28;20055;-76
2023/12/14 01:27:47;;;;;;;6.72;6.13;;;4.90;99.90;;;;;;5121577;28;20100;-77
2023/12/14 01:30:13;;;;;;;6.80;6.13;;;4.90;99.90;;;;;;5121970;28;20050;-76
2023/12/14 01:32:38;;;;;;;6.88;5.90;;;4.90;99.90;;;;;;5121335;28;20043;-76
2023/12/14 01:35:05;;;;;;;6.90;6.30;;;4.90;99.90;;;;;;5121467;28;20043;-77
2023/12/14 01:37:30;;;;;;;7.43;6.72;;;4.80;99.90;;;;;;5119799;28;20047;-77
2023/12/14 01:39:56;;;;;;;6.57;5.93;;;4.80;99.90;;;;;;5104778;28;20040;-76
2023/12/14 01:42:22;;;;;;;7.00;6.30;;;4.80;99.90;;;;;;5100402;28;20043;-76
2023/12/14 01:44:47;;;;;;;7.15;6.25;;;4.80;99.90;;;;;;5120820;28;20118;-77
2023/12/14 01:47:13;;;;;;;7.03;6.10;;;4.80;99.90;;;;;;5120241;28;20043;-77
2023/12/14 01:49:41;;;;;;;10.70;6.82;;;4.70;99.90;;;;;;5120179;28;20043;-76
2023/12/14 01:52:07;;;;;;;8.85;7.05;;;4.80;99.90;;;;;;5121551;28;20056;-77
2023/12/14 01:54:33;;;;;;;8.95;7.03;;;4.70;99.90;;;;;;5119664;28;20052;-77
2023/12/14 01:56:59;;;;;;;8.10;7.15;;;4.70;99.90;;;;;;5122674;28;20052;-78
2023/12/14 01:59:25;;;;;;;10.25;7.63;;;4.70;99.90;;;;;;5121450;28;20573;-77
2023/12/14 02:01:56;;;;;;;7.78;6.97;;;4.70;99.90;;;;;;5104534;28;20039;-77
2023/12/14 02:04:23;;;;;;;7.25;6.53;;;4.70;99.90;;;;;;5120649;28;20092;-77
2023/12/14 02:06:49;;;;;;;8.18;7.38;;;4.70;99.90;;;;;;5120347;28;20122;-76
2023/12/14 02:09:15;;;;;;;7.05;6.35;;;4.70;99.90;;;;;;5121603;28;20083;-76
2023/12/14 02:11:41;;;;;;;7.85;6.80;;;4.70;99.90;;;;;;5119914;28;20077;-77
2023/12/14 02:14:09;;;;;;;7.70;6.90;;;4.70;99.90;;;;;;5103429;28;20040;-77
2023/12/14 02:16:35;;;;;;;7.25;6.55;;;4.70;99.90;;;;;;5119635;28;20054;-76
2023/12/14 02:19:00;;;;;;;8.48;6.40;;;4.70;99.90;;;;;;5102935;28;20063;-76
2023/12/14 02:21:26;;;;;;;6.70;6.10;;;4.70;99.90;;;;;;5103852;28;20047;-76
2023/12/14 02:23:52;;;;;;;7.15;6.50;;;4.70;99.90;;;;;;5119252;28;20051;-77
2023/12/14 02:26:17;;;;;;;7.25;6.43;;;4.70;99.90;;;;;;5120964;28;20048;-77
2023/12/14 02:28:43;;;;;;;7.78;6.97;;;4.70;99.90;;;;;;5119721;28;20048;-76
2023/12/14 02:31:09;;;;;;;6.30;5.80;;;4.70;99.90;;;;;;5102588;28;20043;-77
2023/12/14 02:33:35;;;;;;;7.80;6.93;;;4.70;99.90;;;;;;5118737;28;20059;-77
2023/12/14 02:36:01;;;;;;;7.32;6.55;;;4.70;99.90;;;;;;5120554;28;20044;-77
2023/12/14 02:38:26;;;;;;;7.20;6.50;;;4.70;99.90;;;;;;5120020;28;20139;-77
2023/12/14 02:40:52;;;;;;;7.45;6.72;;;4.70;99.90;;;;;;5119808;28;20118;-76
2023/12/14 02:43:19;;;;;;;9.68;8.68;;;4.60;99.90;;;;;;5103655;28;20125;-75
2023/12/14 02:45:45;;;;;;;9.15;6.97;;;4.60;99.90;;;;;;5118753;28;20044;-77
2023/12/14 02:48:11;;;;;;;7.53;6.82;;;4.60;99.90;;;;;;5120336;28;20043;-77
2023/12/14 02:50:37;;;;;;;8.07;7.25;;;4.60;99.90;;;;;;5119062;28;20073;-77
2023/12/14 02:53:03;;;;;;;8.95;7.20;;;4.60;99.90;;;;;;5120493;28;20050;-77
2023/12/14 02:55:28;;;;;;;9.13;7.20;;;4.60;99.90;;;;;;5119338;28;20042;-77
2023/12/14 02:57:54;;;;;;;7.30;6.55;;;4.60;99.90;;;;;;5120054;28;20477;-77
2023/12/14 03:00:20;;;;;;;8.05;7.25;;;4.60;99.90;;;;;;5120120;28;20043;-77
2023/12/14 03:02:45;;;;;;;7.32;5.57;;;4.60;99.90;;;;;;5119804;28;20079;-77
2023/12/14 03:05:11;;;;;;;6.95;6.30;;;4.60;99.90;;;;;;5121897;28;20122;-76
2023/12/14 03:07:37;;;;;;;7.10;5.93;;;4.60;99.90;;;;;;5101962;28;20047;-76
2023/12/14 03:10:03;;;;;;;7.40;6.10;;;4.70;99.90;;;;;;5102852;28;20055;-77
2023/12/14 03:12:29;;;;;;;7.03;6.10;;;4.60;99.90;;;;;;5119078;28;20092;-77
2023/12/14 03:14:55;;;;;;;8.40;6.25;;;4.60;99.90;;;;;;5119163;28;20048;-77
2023/12/14 03:17:21;;;;;;;6.63;6.03;;;4.60;99.90;;;;;;5117685;28;20495;-77
2023/12/14 03:19:46;;;;;;;7.15;6.53;;;4.60;99.90;;;;;;5098579;28;20051;-77
2023/12/14 03:22:12;;;;;;;6.82;5.88;;;4.60;99.90;;;;;;5120162;28;20511;-76
2023/12/14 03:24:38;;;;;;;7.10;6.50;;;4.60;99.90;;;;;;5118302;28;20044;-76
2023/12/14 03:27:05;;;;;;;7.68;6.90;;;4.60;99.90;;;;;;5119892;28;20075;-76
2023/12/14 03:29:30;;;;;;;8.35;7.13;;;4.60;99.90;;;;;;5118695;28;20448;-76
2023/12/14 03:31:57;;;;;;;7.93;6.15;;;4.60;99.90;;;;;;5119494;28;20119;-77
2023/12/14 03:34:24;;;;;;;7.20;6.50;;;4.60;99.90;;;;;;5121075;28;20050;-76
2023/12/14 03:36:49;;;;;;;7.07;5.85;;;4.60;99.90;;;;;;5118150;28;20039;-77
2023/12/14 03:39:18;;;;;;;7.03;6.38;;;4.60;99.90;;;;;;5101861;28;20080;-77
2023/12/14 03:41:45;;;;;;;8.15;6.93;;;4.60;99.90;;;;;;5115582;28;20437;-77
2023/12/14 03:44:11;;;;;;;7.78;6.97;;;4.60;99.90;;;;;;5118925;28;20099;-76
2023/12/14 03:46:36;;;;;;;8.93;6.88;;;4.60;99.90;;;;;;5118482;28;20076;-77
2023/12/14 03:49:03;;;;;;;6.97;6.38;;;4.60;99.90;;;;;;5119008;28;20047;-77
2023/12/14 03:51:29;;;;;;;7.18;6.47;;;4.60;99.90;;;;;;5119386;28;20077;-77
2023/12/14 03:53:55;;;;;;;8.18;6.47;;;4.60;99.90;;;;;;5118965;28;20031;-77
2023/12/14 03:56:21;;;;;;;7.78;7.07;;;4.60;99.90;;;;;;5120041;28;20043;-76
2023/12/14 03:58:47;;;;;;;7.47;6.38;;;4.60;99.90;;;;;;5101482;28;20047;-77
2023/12/14 04:01:20;;;;;;;7.50;6.72;;;4.60;99.90;;;;;;5120463;28;20502;-76
2023/12/14 04:03:47;;;;;;;7.60;6.10;;;4.60;99.90;;;;;;5101627;28;20065;-77
2023/12/14 04:06:13;;;;;;;6.55;5.95;;;4.50;99.90;;;;;;5119656;28;20411;-76
2023/12/14 04:08:40;;;;;;;8.50;6.40;;;4.50;99.90;;;;;;5119354;28;20487;-76
2023/12/14 04:11:05;;;;;;;7.38;6.45;;;4.60;99.90;;;;;;5118607;28;20103;-77
2023/12/14 04:13:31;;;;;;;8.02;6.05;;;4.50;99.90;;;;;;5119538;28;20056;-76
2023/12/14 04:15:57;;;;;;;10.02;6.95;;;4.60;99.90;;;;;;5117288;28;20047;-76
2023/12/14 04:18:23;;;;;;;7.63;6.63;;;4.60;99.90;;;;;;5118337;28;20044;-77
2023/12/14 04:20:49;;;;;;;7.20;5.63;;;4.60;99.90;;;;;;5101412;28;20047;-76
2023/12/14 04:23:15;;;;;;;7.70;6.95;;;4.60;99.90;;;;;;5101879;28;20108;-76
2023/12/14 04:25:40;;;;;;;7.18;6.47;;;4.60;99.90;;;;;;5118849;28;20057;-76
2023/12/14 04:28:06;;;;;;;7.20;6.50;;;4.60;99.90;;;;;;5101906;28;20052;-76
2023/12/14 04:30:32;;;;;;;7.25;6.55;;;4.60;99.90;;;;;;5101992;28;20089;-77
2023/12/14 04:32:58;;;;;;;7.57;6.72;;;4.60;99.90;;;;;;5116492;28;20519;-77
2023/12/14 04:35:23;;;;;;;9.05;7.68;;;4.60;99.90;;;;;;5117436;28;20040;-77
2023/12/14 04:37:49;;;;;;;7.38;6.68;;;4.60;99.90;;;;;;5116682;28;20411;-77
2023/12/14 04:40:15;;;;;;;6.80;6.15;;;4.70;99.90;;;;;;5118482;28;20111;-77
2023/12/14 04:42:41;;;;;;;7.40;6.70;;;4.60;99.90;;;;;;5121284;28;20122;-75
2023/12/14 04:45:08;;;;;;;6.90;5.85;;;4.60;99.90;;;;;;5123743;28;20062;-76
2023/12/14 04:47:35;;;;;;;6.07;5.30;;;4.60;99.90;;;;;;5122629;28;20075;-75
2023/12/14 04:50:02;;;;;;;8.45;6.10;;;4.50;99.90;;;;;;5121164;28;20054;-77
2023/12/14 04:52:27;;;;;;;6.38;5.78;;;4.40;99.90;;;;;;5122827;28;20067;-77
2023/12/14 04:54:53;;;;;;;7.05;5.70;;;4.50;99.90;;;;;;5103624;28;20066;-77
2023/12/14 04:57:19;;;;;;;6.53;5.78;;;4.50;99.90;;;;;;5104687;28;20099;-77
2023/12/14 04:59:44;;;;;;;7.45;6.70;;;4.50;99.90;;;;;;5123169;28;20048;-77
2023/12/14 05:02:10;;;;;;;7.15;6.45;;;4.50;99.90;;;;;;5121712;28;20066;-77
2023/12/14 05:04:36;;;;;;;7.82;7.03;;;4.50;99.90;;;;;;5122057;28;20089;-77
2023/12/14 05:07:02;;;;;;;7.53;6.65;;;4.50;99.90;;;;;;5121042;28;20067;-77
2023/12/14 05:09:28;;;;;;;8.48;7.38;;;4.50;99.90;;;;;;5122179;28;20051;-77
2023/12/14 05:11:54;;;;;;;9.52;8.05;;;4.50;99.90;;;;;;5100816;28;20632;-77
2023/12/14 05:14:19;;;;;;;9.52;7.25;;;4.60;99.90;;;;;;5102458;28;20055;-77
2023/12/14 05:16:45;;;;;;;7.68;6.35;;;4.60;99.90;;;;;;5121624;28;20044;-77
2023/12/14 05:19:12;;;;;;;7.07;6.25;;;4.60;99.90;;;;;;5121553;28;20047;-77
2023/12/14 05:21:38;;;;;;;7.82;6.28;;;4.50;99.90;;;;;;5123646;28;20577;-77
2023/12/14 05:24:04;;;;;;;7.95;6.82;;;4.50;99.90;;;;;;5120713;28;20047;-76
2023/12/14 05:26:30;;;;;;;8.07;7.28;;;4.50;99.90;;;;;;5122228;28;20048;-77
2023/12/14 05:28:55;;;;;;;7.05;6.30;;;4.50;99.90;;;;;;5121017;28;20049;-77
2023/12/14 05:31:21;;;;;;;7.75;6.80;;;4.50;99.90;;;;;;5104556;28;20043;-77
2023/12/14 05:33:47;;;;;;;8.90;7.10;;;4.50;99.90;;;;;;5103251;28;20047;-77
2023/12/14 05:36:13;;;;;;;8.88;7.18;;;4.50;99.90;;;;;;5121169;28;20429;-77
2023/12/14 05:38:39;;;;;;;8.73;7.05;;;4.50;99.90;;;;;;5104857;28;20047;-77
2023/12/14 05:41:05;;;;;;;9.77;6.60;;;4.50;99.90;;;;;;5088532;28;20141;-77
2023/12/14 05:43:31;;;;;;;9.35;6.63;;;4.50;99.90;;;;;;5104562;28;20570;-77
2023/12/14 05:45:57;;;;;;;8.98;7.18;;;4.50;99.90;;;;;;5120194;28;20174;-77
2023/12/14 05:48:23;;;;;;;8.55;6.40;;;4.50;99.90;;;;;;5120767;28;20043;-77
2023/12/14 05:50:49;;;;;;;9.05;7.50;;;4.50;99.90;;;;;;5120421;28;20048;-77
2023/12/14 05:53:14;;;;;;;8.60;7.38;;;4.50;99.90;;;;;;5120664;28;20076;-77
2023/12/14 05:55:42;;;;;;;9.60;7.85;;;4.50;99.90;;;;;;5120891;28;20143;-78
2023/12/14 05:58:07;;;;;;;8.18;7.38;;;4.50;99.90;;;;;;5121735;28;20050;-77
2023/12/14 06:00:35;;;;;;;7.95;7.15;;;4.50;99.90;;;;;;5121106;28;20039;-78
2023/12/14 06:03:01;;;;;;;8.13;7.22;;;4.50;99.90;;;;;;5120556;28;20434;-78
2023/12/14 06:05:26;;;;;;;8.43;7.63;;;4.50;99.90;;;;;;5120991;28;20075;-79
2023/12/14 06:07:52;;;;;;;9.82;7.55;;;4.50;99.90;;;;;;5102349;28;20121;-78
2023/12/14 06:10:18;;;;;;;7.90;7.10;;;4.50;99.90;;;;;;5103769;28;20043;-79
2023/12/14 06:12:44;;;;;;;8.05;7.00;;;4.50;99.90;;;;;;5120074;28;20036;-78
2023/12/14 06:15:10;;;;;;;9.07;6.93;;;4.50;99.90;;;;;;5121320;28;20055;-78
2023/12/14 06:17:39;;;;;;;11.15;7.35;;;4.40;99.90;;;;;;5104252;28;20164;-78
2023/12/14 06:20:08;;;;;;;8.13;7.40;;;4.50;99.90;;;;;;5119558;28;20059;-78
2023/12/14 06:22:36;;;;;;;7.80;6.80;;;4.50;99.90;;;;;;5120345;28;20043;-78
2023/12/14 06:25:03;;;;;;;6.32;5.72;;;4.50;99.90;;;;;;5120478;28;20384;-78
2023/12/14 06:27:28;;;;;;;6.15;5.55;;;4.40;99.90;;;;;;5120792;28;20567;-78
2023/12/14 06:29:54;;;;;;;7.63;6.45;;;4.50;99.90;;;;;;5121665;28;20035;-78
2023/12/14 06:32:20;;;;;;;8.10;6.63;;;4.50;99.90;;;;;;5119570;28;20075;-78
2023/12/14 06:34:46;;;;;;;7.75;6.75;;;4.40;99.90;;;;;;5104040;28;20062;-78
2023/12/14 06:37:11;;;;;;;8.98;7.80;;;4.40;99.90;;;;;;5119481;28;20044;-79
2023/12/14 06:39:37;;;;;;;9.48;8.02;;;4.50;99.90;;;;;;5102240;28;20039;-78
2023/12/14 06:42:03;;;;;;;10.15;7.88;;;4.50;99.90;;;;;;5099484;28;20074;-78
2023/12/14 06:44:30;;;;;;;7.68;6.97;;;4.50;99.90;;;;;;5103447;28;20061;-78
2023/12/14 06:46:58;;;;;;;8.35;7.53;;;4.50;99.90;;;;;;5086061;28;20047;-78
2023/12/14 06:49:23;;;;;;;11.13;10.02;;;4.50;99.90;;;;;;5118622;28;20054;-78
2023/12/14 06:51:49;;;;;;;9.13;8.23;;;4.50;99.90;;;;;;5120388;28;20480;-78
2023/12/14 06:54:15;;;;;;;7.32;6.55;;;4.50;99.90;;;;;;5118857;28;20055;-78
2023/12/14 06:56:41;;;;;;;8.65;7.32;;;4.50;99.90;;;;;;5103520;28;20043;-76
2023/12/14 06:59:06;;;;;;;8.82;8.02;;;4.50;99.90;;;;;;5098755;28;20051;-76
2023/12/14 07:01:32;;;;;;;9.55;7.35;;;4.50;99.90;;;;;;5120244;28;20067;-76
2023/12/14 07:03:58;;;;;;;8.73;7.90;;;4.50;99.90;;;;;;5101893;28;20519;-76
2023/12/14 07:06:23;;;;;;;8.98;8.15;;;4.60;99.90;;;;;;5102057;28;20071;-76
2023/12/14 07:08:49;;;;;;;8.30;7.50;;;4.50;99.90;;;;;;5120212;28;20047;-76
2023/12/14 07:11:19;;;;;;;9.20;7.20;;;4.50;99.90;;;;;;5119071;28;20059;-76
2023/12/14 07:13:45;;;;;;;8.95;7.55;;;4.50;99.90;;;;;;5121765;28;20107;-75
2023/12/14 07:16:11;;;;;;;7.10;6.40;;;4.50;99.90;;;;;;5100385;28;20051;-75
2023/12/14 07:18:38;;;;;;;7.90;7.10;;;4.50;99.90;;;;;;5112461;28;20056;-75
2023/12/14 07:21:05;;;;;;;7.90;6.97;;;4.50;99.90;;;;;;5099166;28;20117;-75
2023/12/14 07:23:31;;;;;;;7.40;6.75;;;4.50;99.90;;;;;;5100962;28;20117;-75
2023/12/14 07:25:56;;;;;;;8.07;7.07;;;4.50;99.90;;;;;;5119374;28;20043;-75
2023/12/14 07:28:22;;;;;;;8.80;7.45;;;4.50;99.90;;;;;;5118064;28;20078;-75
2023/12/14 07:30:48;;;;;;;8.75;7.95;;;4.60;99.90;;;;;;5119459;28;20100;-76
2023/12/14 07:33:15;;;;;;;8.68;7.78;;;4.50;99.90;;;;;;5118704;28;20055;-75
2023/12/14 07:35:41;;;;;;;9.27;8.18;;;4.50;99.90;;;;;;5119256;28;20514;-75
2023/12/14 07:38:06;;;;;;;10.43;8.07;;;4.50;99.90;;;;;;5118280;28;20088;-78
2023/12/14 07:40:32;;;;;;;15.50;8.13;;;4.50;99.90;;;;;;5093128;28;20418;-78
2023/12/14 07:42:58;;;;;;;9.48;6.97;;;4.60;99.90;;;;;;5065571;28;20028;-78
2023/12/14 07:45:23;;;;;;;9.18;7.75;;;4.60;99.90;;;;;;5106346;28;20040;-78
2023/12/14 07:47:49;;;;;;;9.07;7.90;;;4.50;99.90;;;;;;5119873;28;20127;-78
2023/12/14 07:50:15;;;;;;;9.70;7.78;;;4.60;99.90;;;;;;5101223;28;20073;-78
2023/12/14 07:52:41;;;;;;;8.90;8.10;;;4.50;99.90;;;;;;5120975;28;20039;-78
2023/12/14 07:55:08;;;;;;;9.07;7.13;;;4.60;99.90;;;;;;5085039;28;20086;-78
2023/12/14 07:57:33;;;;;;;8.23;6.85;;;4.60;99.90;;;;;;5119058;28;20077;-78
2023/12/14 07:59:59;;;;;;;10.40;7.60;;;4.60;99.90;;;;;;5119223;28;20035;-77
2023/12/14 08:02:25;;;;;;;9.45;7.70;;;4.50;99.90;;;;;;5100735;28;20065;-78
2023/12/14 08:04:51;;;;;;;10.80;7.57;;;4.50;99.90;;;;;;5119989;28;20105;-78
2023/12/14 08:07:17;;;;;;;9.70;8.05;;;4.50;99.90;;;;;;5115738;28;20043;-78
2023/12/14 08:09:42;;;;;;;9.27;8.32;;;4.60;99.90;;;;;;5117792;28;20173;-78
2023/12/14 08:12:08;;;;;;;9.55;8.55;;;4.60;99.90;;;;;;5082267;28;20032;-78
2023/12/14 08:14:35;;;;;;;9.30;7.63;;;4.60;99.90;;;;;;5113876;28;20119;-78
2023/12/14 08:17:04;;;;;;;13.48;7.88;;;4.60;99.90;;;;;;5118518;28;20047;-78
2023/12/14 08:19:30;;;;;;;10.15;7.95;;;4.70;99.90;;;;;;5116357;28;20063;-78
2023/12/14 08:21:56;;;;;;;8.40;7.30;;;4.60;99.90;;;;;;5122154;28;20051;-78
2023/12/14 08:24:22;;;;;;;8.90;7.75;;;4.60;99.90;;;;;;5100979;27;20048;-78
2023/12/14 08:26:47;;;;;;;9.13;8.13;;;4.60;99.90;;;;;;5118941;28;20054;-78
2023/12/14 08:29:13;;;;;;;9.57;8.13;;;4.60;99.90;;;;;;5104159;28;20075;-78
2023/12/14 08:31:39;;;;;;;9.27;8.30;;;4.70;99.90;;;;;;5119289;27;20091;-76
2023/12/14 08:34:04;;;;;;;10.05;7.90;;;4.70;99.90;;;;;;5119417;28;20059;-75
2023/12/14 08:36:31;;;;;;;8.75;7.60;;;4.70;99.90;;;;;;5120286;28;20554;-75
2023/12/14 08:38:58;;;;;;;9.23;7.25;;;4.70;99.90;;;;;;5117530;28;20048;-79
2023/12/14 08:41:24;;;;;;;9.32;8.20;;;4.70;99.90;;;;;;5114964;28;20048;-78
2023/12/14 08:43:49;;;;;;;11.30;7.78;;;4.80;99.90;;;;;;5095248;28;20127;-78
2023/12/14 08:46:15;;;;;;;10.43;7.38;;;4.70;99.90;;;;;;5120252;28;20043;-78
2023/12/14 08:48:41;;;;;;;8.50;7.43;;;4.70;99.90;;;;;;5119591;28;20074;-78
2023/12/14 08:51:07;;;;;;;10.43;8.52;;;4.70;99.90;;;;;;5118151;28;20059;-78
2023/12/14 08:53:33;;;;;;;10.48;7.43;;;4.70;99.90;;;;;;5120620;28;20093;-78
2023/12/14 08:55:59;;;;;;;10.90;7.78;;;4.70;99.90;;;;;;5103975;28;20051;-78
2023/12/14 08:58:24;;;;;;;10.77;8.32;;;4.70;99.90;;;;;;5119186;28;20558;-77
2023/12/14 09:00:53;;;;;;;11.35;7.97;;;4.70;99.90;;;;;;5121018;28;20050;-78
2023/12/14 09:03:19;;;;;;;11.07;7.85;;;4.70;99.90;;;;;;5119257;28;20036;-77
2023/12/14 09:05:45;;;;;;;11.20;8.60;;;4.70;99.90;;;;;;5121211;28;20073;-77
2023/12/14 09:08:11;;;;;;;9.40;7.88;;;4.70;99.90;;;;;;5120300;28;20048;-79
2023/12/14 09:10:38;;;;;;;9.65;8.20;;;4.70;99.90;;;;;;5122576;28;20063;-78
2023/12/14 09:13:05;;;;;;;8.50;7.70;;;4.70;99.90;;;;;;5122695;27;20103;-74
2023/12/14 09:15:34;;;;;;;9.88;8.27;;;4.70;99.90;;;;;;5120540;28;20047;-75
2023/12/14 09:17:59;;;;;;;9.02;7.63;;;4.80;99.90;;;;;;5120817;28;20505;-77
2023/12/14 09:20:25;;;;;;;7.93;7.13;;;4.80;99.90;;;;;;5120087;28;20103;-76
2023/12/14 09:22:51;;;;;;;9.60;8.57;;;4.80;99.90;;;;;;5120928;28;20045;-76
2023/12/14 09:25:18;;;;;;;11.80;8.45;;;4.80;99.90;;;;;;5102601;28;20067;-76
2023/12/14 09:27:43;;;;;;;14.63;10.15;;;4.80;99.90;;;;;;5065398;28;20028;-76
2023/12/14 09:30:10;;;;;;;8.85;7.95;;;4.80;99.90;;;;;;5114762;28;20103;-76
2023/12/14 09:32:36;;;;;;;9.52;8.52;;;4.80;99.90;;;;;;5119127;28;20058;-76
2023/12/14 09:35:02;;;;;;;12.60;9.60;;;4.90;99.90;;;;;;5120923;28;20031;-76
2023/12/14 09:37:28;;;;;;;14.48;8.23;;;4.90;99.90;;;;;;5119356;28;20051;-76
2023/12/14 09:39:54;;;;;;;11.00;9.60;;;4.90;99.90;;;;;;5121537;28;20101;-75
2023/12/14 09:42:20;;;;;;;11.55;8.93;;;5.00;99.90;;;;;;5118685;28;20489;-75
2023/12/14 09:44:52;;;;;;;13.15;8.93;;;5.00;99.90;;;;;;5118968;28;20118;-76
2023/12/14 09:47:17;;;;;;;9.63;8.55;;;4.90;99.90;;;;;;5118721;28;20043;-77
2023/12/14 09:49:45;;;;;;;10.10;8.75;;;5.00;99.90;;;;;;5117291;28;20047;-76
2023/12/14 09:52:11;;;;;;;13.20;8.30;;;5.00;99.90;;;;;;5119914;28;20067;-75
2023/12/14 09:54:37;;;;;;;11.00;8.50;;;5.00;99.90;;;;;;5118863;28;20047;-76
2023/12/14 09:57:03;;;;;;;10.73;9.05;;;5.00;99.90;;;;;;5085129;28;20046;-75
2023/12/14 09:59:29;;;;;;;10.35;8.95;;;5.00;99.90;;;;;;5120729;28;20123;-76
2023/12/14 10:02:15;;;;;;;15.00;9.20;;;5.00;99.90;;;;;;5084122;28;20411;-75
2023/12/14 10:04:43;;;;;;;12.30;8.80;;;5.10;99.90;;;;;;5103452;28;20047;-76
2023/12/14 10:07:09;;;;;;;18.42;9.77;;;5.00;99.90;;;;;;5115719;28;20039;-76
2023/12/14 10:09:37;;;;;;;13.95;9.10;;;5.10;99.90;;;;;;5120293;28;20062;-74
2023/12/14 10:12:05;;;;;;;11.93;8.43;;;5.00;99.90;;;;;;5118896;28;20036;-75
2023/12/14 10:14:31;;;;;;;11.43;8.73;;;5.10;99.90;;;;;;5119394;28;20051;-76
2023/12/14 10:16:57;;;;;;;14.73;8.88;;;5.10;99.90;;;;;;5118720;28;20095;-75
2023/12/14 10:19:23;;;;;;;14.30;9.50;;;5.00;99.90;;;;;;5118454;28;20098;-75
2023/12/14 10:21:50;;;;;;;10.85;8.90;;;5.00;99.90;;;;;;5120455;28;20039;-74
2023/12/14 10:24:16;;;;;;;11.95;9.60;;;5.00;99.90;;;;;;5118707;28;20054;-76
2023/12/14 10:26:45;;;;;;;10.07;8.63;;;5.10;99.90;;;;;;5105113;28;20043;-76
2023/12/14 10:29:11;;;;;;;12.25;9.18;;;5.00;99.90;;;;;;5087607;28;20504;-76
2023/12/14 10:31:37;;;;;;;15.57;9.25;;;5.10;99.90;;;;;;5118454;28;20093;-76
2023/12/14 10:34:06;;;;;;;11.25;9.07;;;5.10;99.90;;;;;;5118768;28;20128;-76
2023/12/14 10:36:34;;;;;;;14.85;10.30;;;5.10;99.90;;;;;;5100848;28;20103;-76
2023/12/14 10:39:01;;;;;;;11.18;9.57;;;5.10;99.90;;;;;;5118780;28;20040;-75
2023/12/14 10:41:29;;;;;;;11.15;9.30;;;5.10;99.90;;;;;;5113466;28;20597;-76
2023/12/14 10:43:56;;;;;;;10.65;9.23;;;5.10;99.90;;;;;;5119765;28;20477;-76
2023/12/14 10:46:22;;;;;;;10.63;9.30;;;5.20;99.90;;;;;;5118314;28;20051;-76
2023/12/14 10:48:50;;;;;;;11.68;9.00;;;5.20;99.90;;;;;;5119388;28;20048;-75
2023/12/14 10:51:18;;;;;;;11.23;9.38;;;5.20;99.90;;;;;;5102490;28;20044;-75
2023/12/14 10:53:47;;;;;;;10.50;9.15;;;5.20;99.90;;;;;;5118608;27;20054;-74
2023/12/14 10:56:14;;;;;;;11.77;9.55;;;5.20;99.90;;;;;;5102734;28;20040;-75
2023/12/14 10:58:52;;;;;;;13.35;9.48;;;5.20;99.90;;;;;;5117801;28;20047;-76
2023/12/14 11:01:26;;;;;;;15.63;9.95;;;5.20;99.90;;;;;;5118456;28;20106;-73
2023/12/14 11:03:59;;;;;;;13.70;9.65;;;5.20;99.90;;;;;;5119506;28;20119;-74
2023/12/14 11:06:25;;;;;;;12.18;10.00;;;5.10;99.90;;;;;;5118799;28;20499;-75
2023/12/14 11:08:56;;;;;;;11.80;9.10;;;5.10;99.90;;;;;;5119109;28;20050;-76
2023/12/14 11:11:21;;;;;;;11.48;8.88;;;5.10;99.90;;;;;;5100927;28;20073;-76
2023/12/14 11:13:53;;;;;;;11.18;10.00;;;5.10;99.90;;;;;;5118348;28;20052;-76
2023/12/14 11:16:23;;;;;;;13.23;9.85;;;5.20;99.90;;;;;;5116395;28;20043;-75
2023/12/14 11:19:08;;;;;;;10.50;8.93;;;5.10;99.90;;;;;;5118345;28;20088;-76
2023/12/14 11:21:34;;;;;;;14.18;8.68;;;5.30;99.90;;;;;;5119428;28;20047;-76
2023/12/14 11:24:01;;;;;;;10.90;8.20;;;5.20;99.90;;;;;;5117523;28;20059;-76
2023/12/14 11:26:28;;;;;;;10.57;8.30;;;5.20;99.90;;;;;;5119532;28;20047;-76
2023/12/14 11:28:54;;;;;;;12.57;8.57;;;5.20;99.90;;;;;;5099879;28;20047;-78
2023/12/14 11:31:20;;;;;;;11.35;8.13;;;5.30;99.90;;;;;;5118722;28;20119;-76
2023/12/14 11:33:47;;;;;;;10.23;8.00;;;5.30;99.90;;;;;;5117660;28;20531;-76
2023/12/14 11:36:14;;;;;;;9.88;8.55;;;5.30;99.90;;;;;;5119747;28;20051;-75
2023/12/14 11:38:40;;;;;;;12.30;7.82;;;5.30;99.90;;;;;;5119894;28;20043;-77
2023/12/14 11:41:05;;;;;;;12.48;8.30;;;5.20;99.90;;;;;;5116967;28;20066;-75
2023/12/14 11:43:43;;;;;;;10.02;7.70;;;5.20;99.90;;;;;;5119079;28;20040;-75
2023/12/14 11:46:10;;;;;;;13.45;8.85;;;5.30;99.90;;;;;;5119016;28;20054;-74
2023/12/14 11:48:35;;;;;;;10.85;9.30;;;5.30;99.90;;;;;;5101059;28;20055;-75
2023/12/14 11:51:01;;;;;;;11.30;8.18;;;5.30;99.90;;;;;;5119817;28;20039;-74
2023/12/14 11:53:27;;;;;;;14.25;8.93;;;5.20;99.90;;;;;;5121804;28;20050;-74
2023/12/14 11:55:53;;;;;;;10.50;8.70;;;5.20;99.90;;;;;;5124825;28;20051;-75
2023/12/14 11:58:18;;;;;;;14.63;9.85;;;5.20;99.90;;;;;;5117385;28;20103;-75
2023/12/14 12:00:46;;;;;;;10.35;8.18;;;5.20;99.90;;;;;;5121954;28;20078;-75
2023/12/14 12:03:15;;;;;;;12.60;9.23;;;5.20;99.90;;;;;;5120985;28;20070;-76
2023/12/14 12:05:46;;;;;;;10.50;8.38;;;5.10;99.90;;;;;;5121579;28;20069;-76
2023/12/14 12:08:13;;;;;;;12.10;8.93;;;5.10;99.90;;;;;;5121856;28;20043;-76
2023/12/14 12:10:40;;;;;;;13.77;9.50;;;5.10;99.90;;;;;;5104880;28;20168;-75
2023/12/14 12:13:11;;;;;;;10.23;8.60;;;5.20;99.90;;;;;;5104213;28;20062;-75
2023/12/14 12:15:37;;;;;;;13.23;8.73;;;5.20;99.90;;;;;;5120191;28;20190;-75
2023/12/14 12:18:08;;;;;;;9.82;8.70;;;5.20;99.90;;;;;;5121197;28;20448;-76
2023/12/14 12:20:34;;;;;;;16.70;9.52;;;5.20;99.90;;;;;;5122206;28;20050;-75
2023/12/14 12:23:01;;;;;;;13.02;9.45;;;5.20;99.90;;;;;;5122548;28;20071;-77
2023/12/14 12:25:27;;;;;;;12.27;8.75;;;5.10;99.90;;;;;;5122107;28;20052;-75
2023/12/14 12:27:55;;;;;;;11.77;8.80;;;5.20;99.90;;;;;;5104700;28;20035;-74
2023/12/14 12:30:21;;;;;;;11.00;9.18;;;5.20;99.90;;;;;;5122855;27;20127;-74
2023/12/14 12:32:47;;;;;;;12.98;9.02;;;5.20;99.90;;;;;;5120862;28;20388;-75
2023/12/14 12:35:13;;;;;;;9.73;7.93;;;5.10;99.90;;;;;;5122503;28;20069;-75
2023/12/14 12:37:39;;;;;;;15.10;8.85;;;5.10;99.90;;;;;;5121043;28;20137;-75
2023/12/14 12:40:06;;;;;;;9.77;8.77;;;5.10;99.90;;;;;;5102070;28;20033;-75
2023/12/14 12:42:32;;;;;;;9.93;8.27;;;5.10;99.90;;;;;;5112270;28;20047;-75
2023/12/14 12:44:58;;;;;;;9.80;7.70;;;5.10;99.90;;;;;;5120662;28;20342;-75
2023/12/14 12:47:23;;;;;;;13.75;9.13;;;5.10;99.90;;;;;;5122231;28;20054;-76